Hastings, Nebraska
Current Conditions -  °F | °C
As of 5:53 PM on Saturday 22 Nov 2014 (Local Time) from KHSI Reporting Station
Clear Clear  
Wind Chill: 51°   Ceiling: Unl
Heat Index: 51°   Visibility: 10mi
Dew Point: 36°   Wind: 5mph
Humidity: 56%   Direction: 180°S
Pressure: 29.55"   Gusts: NA
Location:  40.59°N, 98.39°W
Report Text: KHSI 222353Z AUTO 18004KT 10SM CLR 11/02 A2955 RMK AO2 SLP013 T01060022 10139 20061 56022
Loading
Personal Weather Stations






























Interactive Weather Map New forecast layout! Learn more

10-Day Weather Forecast

Advertisements
Track Severe Weather on mobile